createdAt,value
2022-08-01T00:00:12.853Z,99124.41
2022-08-01T00:02:41.757Z,99124.53
2022-08-01T00:05:11.756Z,99117.34
2022-08-01T00:07:41.401Z,99124.75
2022-08-01T00:10:12.508Z,99119.22
2022-08-01T00:12:40.938Z,99109.41
2022-08-01T00:15:12.529Z,99108.63
2022-08-01T00:17:41.385Z,99117.69
2022-08-01T00:20:13.879Z,99104.94
2022-08-01T00:22:43.766Z,99114.16
2022-08-01T00:25:12.446Z,99115.41
2022-08-01T00:27:40.915Z,99117.38
2022-08-01T00:30:14.626Z,99111.00
2022-08-01T00:32:45.357Z,99119.63
2022-08-01T00:35:14.530Z,99126.03
2022-08-01T00:37:45.815Z,99123.41
2022-08-01T00:40:14.190Z,99117.13
2022-08-01T00:42:43.757Z,99123.97
2022-08-01T00:45:12.842Z,99121.81
2022-08-01T00:47:41.215Z,99131.13
2022-08-01T00:50:10.709Z,99134.78
2022-08-01T00:52:39.523Z,99126.28
2022-08-01T00:55:13.122Z,99140.34
2022-08-01T00:58:03.038Z,99130.38
2022-08-01T01:00:34.952Z,99125.75
2022-08-01T01:03:26.283Z,99126.50
2022-08-01T01:06:15.627Z,99128.31
2022-08-01T01:08:48.738Z,99128.44
2022-08-01T01:11:26.009Z,99130.63
2022-08-01T01:14:00.709Z,99135.38
2022-08-01T01:16:32.560Z,99128.41
2022-08-01T01:19:04.871Z,99133.41
2022-08-01T01:21:56.732Z,99131.31
2022-08-01T01:24:40.082Z,99131.09
2022-08-01T01:27:19.091Z,99131.66
2022-08-01T01:30:00.496Z,99136.63
2022-08-01T01:32:35.580Z,99134.31
2022-08-01T01:35:08.788Z,99139.94
2022-08-01T01:37:41.264Z,99133.22
2022-08-01T01:40:11.974Z,99137.31
2022-08-01T01:42:41.150Z,99140.94
2022-08-01T01:45:11.474Z,99134.13
2022-08-01T01:47:40.930Z,99143.72
2022-08-01T01:50:11.828Z,99130.56
2022-08-01T01:52:42.070Z,99127.03
2022-08-01T01:55:12.757Z,99126.69
2022-08-01T01:57:46.087Z,99121.75
2022-08-01T02:00:19.012Z,99133.06
2022-08-01T02:02:48.704Z,99126.34
2022-08-01T02:05:17.927Z,99137.91
2022-08-01T02:07:48.568Z,99136.81
2022-08-01T02:10:20.042Z,99134.03
2022-08-01T02:12:58.399Z,99132.63
2022-08-01T02:15:30.625Z,99128.75
2022-08-01T02:18:00.197Z,99132.94
2022-08-01T02:20:31.239Z,99128.88
2022-08-01T02:23:08.346Z,99128.75
2022-08-01T02:26:10.962Z,99130.41
2022-08-01T02:28:35.178Z,99133.34
2022-08-01T02:31:10.658Z,99131.09
2022-08-01T02:33:42.736Z,99132.31
2022-08-01T02:36:32.031Z,99137.03
2022-08-01T02:39:05.629Z,99133.97
2022-08-01T02:41:38.730Z,99138.47
2022-08-01T02:44:09.789Z,99127.63
2022-08-01T02:46:55.088Z,99123.75
2022-08-01T02:49:27.260Z,99118.13
2022-08-01T02:51:57.327Z,99120.31
2022-08-01T02:54:26.607Z,99124.19
2022-08-01T02:56:56.386Z,99133.22
2022-08-01T02:59:28.797Z,99123.94
2022-08-01T03:02:01.378Z,99119.84
2022-08-01T03:04:32.243Z,99124.25
2022-08-01T03:07:01.101Z,99119.84
2022-08-01T03:09:31.917Z,99127.34
2022-08-01T03:12:03.659Z,99117.63
2022-08-01T03:14:36.611Z,99119.78
2022-08-01T03:17:07.830Z,99112.53
2022-08-01T03:19:38.821Z,99109.09
2022-08-01T03:22:10.291Z,99111.88
2022-08-01T03:24:40.890Z,99106.38
2022-08-01T03:27:11.829Z,99108.59
2022-08-01T03:29:43.476Z,99108.50
2022-08-01T03:32:15.230Z,99115.69
2022-08-01T03:34:43.674Z,99113.06
2022-08-01T03:37:17.277Z,99110.06
2022-08-01T03:39:49.717Z,99107.78
2022-08-01T03:42:23.036Z,99104.84
2022-08-01T03:44:57.687Z,99105.38
2022-08-01T03:47:40.784Z,99107.25
2022-08-01T03:50:14.678Z,99104.25
2022-08-01T03:52:48.885Z,99105.81
2022-08-01T03:55:19.363Z,99111.44
2022-08-01T03:57:48.497Z,99111.06
2022-08-01T04:00:19.591Z,99108.53
2022-08-01T04:02:50.032Z,99115.38
2022-08-01T04:05:18.904Z,99112.03
2022-08-01T04:07:49.430Z,99114.94
2022-08-01T04:10:18.408Z,99124.09
2022-08-01T04:12:46.585Z,99116.66
2022-08-01T04:15:15.111Z,99120.50
2022-08-01T04:17:43.513Z,99123.97
2022-08-01T04:20:14.615Z,99123.59
2022-08-01T04:22:43.377Z,99120.03
2022-08-01T04:25:15.463Z,99121.88
2022-08-01T04:27:52.242Z,99121.97
2022-08-01T04:30:25.679Z,99125.06
2022-08-01T04:32:56.638Z,99120.09
2022-08-01T04:36:03.277Z,99125.38
2022-08-01T04:38:24.216Z,99136.03
2022-08-01T04:40:54.676Z,99127.78
2022-08-01T04:43:23.419Z,99133.50
2022-08-01T04:45:53.718Z,99132.09
2022-08-01T04:48:24.433Z,99139.03
2022-08-01T04:50:54.107Z,99131.63
2022-08-01T04:53:24.134Z,99126.28
2022-08-01T04:55:52.285Z,99126.56
2022-08-01T04:58:21.166Z,99134.63
2022-08-01T05:00:49.762Z,99128.28
2022-08-01T05:03:17.950Z,99133.63
2022-08-01T05:05:46.327Z,99124.34
2022-08-01T05:08:17.476Z,99128.88
2022-08-01T05:10:46.033Z,99128.00
2022-08-01T05:13:14.157Z,99116.94
2022-08-01T05:15:42.294Z,99137.59
2022-08-01T05:18:10.874Z,99129.25
2022-08-01T05:20:39.605Z,99129.44
2022-08-01T05:23:10.219Z,99130.84
2022-08-01T05:25:57.283Z,99135.16
2022-08-01T05:28:27.215Z,99130.69
2022-08-01T05:30:56.079Z,99121.28
2022-08-01T05:33:24.522Z,99124.34
2022-08-01T05:35:52.717Z,99125.84
2022-08-01T05:38:20.934Z,99128.25
2022-08-01T05:40:50.432Z,99123.47
2022-08-01T05:43:18.623Z,99126.88
2022-08-01T05:45:47.189Z,99131.34
2022-08-01T05:48:15.450Z,99131.19
2022-08-01T05:50:43.717Z,99132.53
2022-08-01T05:53:12.188Z,99128.97
2022-08-01T05:55:40.376Z,99133.31
2022-08-01T05:58:12.504Z,99127.28
2022-08-01T06:00:40.981Z,99129.59
2022-08-01T06:03:09.364Z,99111.72
2022-08-01T06:05:37.674Z,99119.72
2022-08-01T06:08:06.475Z,99129.00
2022-08-01T06:10:34.714Z,99124.81
2022-08-01T06:13:04.224Z,99113.56
2022-08-01T06:15:34.181Z,99131.47
2022-08-01T06:18:03.008Z,99116.66
2022-08-01T06:20:31.457Z,99111.44
2022-08-01T06:23:00.976Z,99120.53
2022-08-01T06:25:30.729Z,99116.22
2022-08-01T06:27:58.919Z,99109.59
2022-08-01T06:30:27.323Z,99108.66
2022-08-01T06:32:59.661Z,99109.56
2022-08-01T06:35:28.149Z,99106.78
2022-08-01T06:37:56.416Z,99110.31
2022-08-01T06:40:24.688Z,99106.94
2022-08-01T06:42:52.974Z,99096.91
2022-08-01T06:45:23.947Z,99095.38
2022-08-01T06:47:52.102Z,99105.53
2022-08-01T06:50:22.802Z,99106.31
2022-08-01T06:52:51.037Z,99110.81
2022-08-01T06:55:20.429Z,99106.66
2022-08-01T06:57:49.861Z,99104.50
2022-08-01T07:00:19.963Z,99092.00
2022-08-01T07:02:48.271Z,99078.25
2022-08-01T07:05:16.442Z,99076.22
2022-08-01T07:07:46.184Z,99084.53
2022-08-01T07:10:14.353Z,99085.50
2022-08-01T07:12:42.531Z,99089.50
2022-08-01T07:15:12.729Z,99086.41
2022-08-01T07:17:41.711Z,99086.72
2022-08-01T07:20:16.228Z,99088.25
2022-08-01T07:22:48.172Z,99097.53
2022-08-01T07:25:16.972Z,99080.06
2022-08-01T07:27:45.687Z,99082.19
2022-08-01T07:30:14.745Z,99082.00
2022-08-01T07:32:43.577Z,99084.78
2022-08-01T07:35:12.048Z,99072.00
2022-08-01T07:37:44.339Z,99062.59
2022-08-01T07:40:19.875Z,99059.19
2022-08-01T07:42:49.310Z,99058.84
2022-08-01T07:45:17.768Z,99053.88
2022-08-01T07:47:46.718Z,99063.44
2022-08-01T07:50:15.273Z,99054.56
2022-08-01T07:52:43.549Z,99064.06
2022-08-01T07:55:16.555Z,99055.72
2022-08-01T07:57:46.868Z,99063.13
2022-08-01T08:00:16.019Z,99064.88
2022-08-01T08:02:45.202Z,99051.25
2022-08-01T08:05:13.854Z,99053.53
2022-08-01T08:07:42.048Z,99053.75
2022-08-01T08:10:11.146Z,99056.38
2022-08-01T08:12:39.878Z,99063.78
2022-08-01T08:15:10.798Z,99040.78
2022-08-01T08:17:39.124Z,99042.09
2022-08-01T08:20:26.913Z,99042.06
2022-08-01T08:22:55.117Z,99027.31
2022-08-01T08:25:26.739Z,99034.16
2022-08-01T08:27:55.201Z,99039.53
2022-08-01T08:30:24.735Z,99038.88
2022-08-01T08:32:53.330Z,99039.09
2022-08-01T08:35:23.164Z,99032.31
2022-08-01T08:37:51.626Z,99032.16
2022-08-01T08:40:31.710Z,99038.38
2022-08-01T08:43:02.188Z,99028.56
2022-08-01T08:45:56.112Z,99033.41
2022-08-01T08:48:21.656Z,99030.22
2022-08-01T08:50:57.593Z,99015.84
2022-08-01T08:53:26.057Z,99025.72
2022-08-01T08:56:04.932Z,99031.31
2022-08-01T08:58:38.499Z,99016.31
2022-08-01T09:01:10.220Z,99020.94
2022-08-01T09:03:38.756Z,99019.22
2022-08-01T09:06:07.005Z,99015.94
2022-08-01T09:08:35.551Z,99018.03
2022-08-01T09:11:03.709Z,99018.81
2022-08-01T09:13:32.359Z,99016.31
2022-08-01T09:16:00.669Z,99026.31
2022-08-01T09:18:35.873Z,99010.28
2022-08-01T09:21:12.033Z,99002.56
2022-08-01T09:23:53.843Z,99010.06
2022-08-01T09:26:32.622Z,99014.22
2022-08-01T09:29:04.104Z,98993.59
2022-08-01T09:31:42.433Z,98995.78
2022-08-01T09:34:20.005Z,98983.25
2022-08-01T09:36:54.624Z,98996.69
2022-08-01T09:39:25.160Z,99006.84
2022-08-01T09:41:54.976Z,99002.94
2022-08-01T09:44:44.069Z,98990.75
2022-08-01T09:47:15.583Z,98984.78
2022-08-01T09:49:50.448Z,98982.44
2022-08-01T09:52:25.634Z,98981.09
2022-08-01T09:54:57.243Z,98976.88
2022-08-01T09:57:26.351Z,98979.06
2022-08-01T09:59:58.629Z,98979.03
2022-08-01T10:02:34.121Z,98982.94
2022-08-01T10:05:08.337Z,98995.34
2022-08-01T10:07:44.055Z,98975.44
2022-08-01T10:10:15.255Z,98974.50
2022-08-01T10:12:45.548Z,98975.13
2022-08-01T10:15:18.295Z,98974.19
2022-08-01T10:17:57.322Z,98963.78
2022-08-01T10:20:32.386Z,98969.09
2022-08-01T10:23:06.207Z,98962.75
2022-08-01T10:25:42.510Z,98971.53
2022-08-01T10:28:17.838Z,98969.16
2022-08-01T10:30:47.278Z,98949.78
2022-08-01T10:33:49.621Z,98957.72
2022-08-01T10:36:09.826Z,98971.09
2022-08-01T10:38:38.311Z,98961.69
2022-08-01T10:41:08.542Z,98970.69
2022-08-01T10:43:37.175Z,98969.56
2022-08-01T10:46:05.946Z,98968.94
2022-08-01T10:48:46.002Z,98973.09
2022-08-01T10:51:19.130Z,98965.38
2022-08-01T10:53:53.908Z,98966.38
2022-08-01T10:56:27.207Z,98976.66
2022-08-01T10:59:06.027Z,98956.41
2022-08-01T11:01:45.323Z,98963.16
2022-08-01T11:04:17.393Z,98973.00
2022-08-01T11:07:04.092Z,98972.63
2022-08-01T11:09:49.403Z,98966.91
2022-08-01T11:12:23.476Z,98965.44
2022-08-01T11:15:32.142Z,98968.53
2022-08-01T11:18:02.968Z,98958.91
2022-08-01T11:20:41.601Z,98949.22
2022-08-01T11:23:23.319Z,98964.56
2022-08-01T11:26:17.545Z,98968.97
2022-08-01T11:29:17.971Z,98945.59
2022-08-01T11:31:38.207Z,98946.41
2022-08-01T11:34:06.833Z,98953.81
2022-08-01T11:36:59.036Z,98965.47
2022-08-01T11:39:24.952Z,98937.38
2022-08-01T11:41:56.119Z,98941.44
2022-08-01T11:44:30.508Z,98934.84
2022-08-01T11:47:08.956Z,98941.47
2022-08-01T11:49:51.864Z,98937.91
2022-08-01T11:52:25.838Z,98921.25
2022-08-01T11:54:56.948Z,98936.81
2022-08-01T11:57:33.885Z,98943.72
2022-08-01T12:00:15.361Z,98941.88
2022-08-01T12:02:47.083Z,98923.31
2022-08-01T12:05:19.163Z,98924.66
2022-08-01T12:07:51.451Z,98923.66
2022-08-01T12:10:23.961Z,98926.97
2022-08-01T12:12:54.028Z,98923.19
2022-08-01T12:15:23.820Z,98921.91
2022-08-01T12:17:58.547Z,98932.81
2022-08-01T12:20:31.280Z,98932.56
2022-08-01T12:23:01.954Z,98922.13
2022-08-01T12:25:31.852Z,98922.41
2022-08-01T12:28:03.478Z,98915.63
2022-08-01T12:30:36.418Z,98914.66
2022-08-01T12:33:06.421Z,98918.00
2022-08-01T12:35:35.158Z,98912.66
2022-08-01T12:38:06.936Z,98918.53
2022-08-01T12:40:43.309Z,98911.44
2022-08-01T12:43:27.580Z,98902.00
2022-08-01T12:45:59.438Z,98907.06
2022-08-01T12:48:28.748Z,98913.16
2022-08-01T12:51:01.588Z,98909.59
2022-08-01T12:53:41.048Z,98910.38
2022-08-01T12:56:12.441Z,98899.22
2022-08-01T12:58:41.316Z,98901.00
2022-08-01T13:01:12.142Z,98898.22
2022-08-01T13:03:41.077Z,98895.16
2022-08-01T13:06:16.295Z,98904.06
2022-08-01T13:08:46.091Z,98896.91
2022-08-01T13:11:18.230Z,98893.09
2022-08-01T13:13:49.812Z,98893.38
2022-08-01T13:16:30.294Z,98884.25
2022-08-01T13:19:07.858Z,98902.06
2022-08-01T13:21:52.542Z,98906.09
2022-08-01T13:24:27.430Z,98891.84
2022-08-01T13:27:00.623Z,98897.19
2022-08-01T13:29:33.743Z,98888.59
2022-08-01T13:32:02.131Z,98877.38
2022-08-01T13:34:34.126Z,98885.28
2022-08-01T13:37:03.740Z,98877.59
2022-08-01T13:39:45.539Z,98875.06
2022-08-01T13:42:19.359Z,98881.44
2022-08-01T13:44:49.324Z,98878.91
2022-08-01T13:47:17.416Z,98876.31
2022-08-01T13:49:45.818Z,98869.97
2022-08-01T13:52:14.117Z,98882.22
2022-08-01T13:54:42.290Z,98875.88
2022-08-01T13:57:10.669Z,98875.63
2022-08-01T13:59:40.205Z,98871.56
2022-08-01T14:02:08.728Z,98862.63
2022-08-01T14:04:36.955Z,98874.59
2022-08-01T14:07:09.661Z,98867.75
2022-08-01T14:09:57.713Z,98872.06
2022-08-01T14:12:28.281Z,98878.19
2022-08-01T14:14:58.827Z,98888.34
2022-08-01T14:17:27.135Z,98869.47
2022-08-01T14:19:57.635Z,98875.56
2022-08-01T14:22:25.831Z,98873.78
2022-08-01T14:24:58.260Z,98890.09
2022-08-01T14:27:31.941Z,98878.38
2022-08-01T14:30:03.457Z,98878.63
2022-08-01T14:32:34.371Z,98875.31
2022-08-01T14:35:04.270Z,98876.84
2022-08-01T14:37:37.818Z,98888.75
2022-08-01T14:40:11.337Z,98885.72
2022-08-01T14:42:40.078Z,98874.06
2022-08-01T14:45:11.126Z,98873.78
2022-08-01T14:47:40.078Z,98874.53
2022-08-01T14:50:10.961Z,98880.38
2022-08-01T14:52:42.438Z,98874.53
2022-08-01T14:55:12.865Z,98884.47
2022-08-01T14:57:42.397Z,98887.78
2022-08-01T15:00:14.527Z,98888.59
2022-08-01T15:02:42.775Z,98888.03
2022-08-01T15:05:12.166Z,98878.88
2022-08-01T15:07:43.112Z,98888.53
2022-08-01T15:10:20.951Z,98895.47
2022-08-01T15:12:50.571Z,98896.22
2022-08-01T15:15:21.243Z,98892.63
2022-08-01T15:17:49.617Z,98893.09
2022-08-01T15:20:18.205Z,98889.00
2022-08-01T15:22:47.074Z,98893.63
2022-08-01T15:25:15.343Z,98887.50
2022-08-01T15:27:44.368Z,98881.41
2022-08-01T15:30:14.147Z,98894.63
2022-08-01T15:32:44.663Z,98894.34
2022-08-01T15:35:12.781Z,98889.53
2022-08-01T15:37:43.256Z,98894.84
2022-08-01T15:40:13.200Z,98889.00
2022-08-01T15:42:41.607Z,98902.22
2022-08-01T15:45:25.674Z,98902.22
2022-08-01T15:48:00.846Z,98894.78
2022-08-01T15:50:28.942Z,98896.56
2022-08-01T15:52:57.021Z,98896.31
2022-08-01T15:55:25.198Z,98899.16
2022-08-01T15:57:53.289Z,98896.41
2022-08-01T16:00:22.330Z,98895.88
2022-08-01T16:02:51.977Z,98894.59
2022-08-01T16:05:21.699Z,98897.66
2022-08-01T16:08:01.292Z,98893.31
2022-08-01T16:10:30.769Z,98896.84
2022-08-01T16:12:58.833Z,98900.94
2022-08-01T16:15:36.624Z,98899.63
2022-08-01T16:18:05.798Z,98901.66
2022-08-01T16:20:39.110Z,98898.59
2022-08-01T16:23:11.355Z,98899.63
2022-08-01T16:25:39.553Z,98906.53
2022-08-01T16:28:10.084Z,98913.34
2022-08-01T16:31:00.095Z,98914.63
2022-08-01T16:33:53.138Z,98911.56
2022-08-01T16:36:17.688Z,98916.66
2022-08-01T16:38:47.017Z,98907.00
2022-08-01T16:41:19.463Z,98919.47
2022-08-01T16:43:53.802Z,98911.56
2022-08-01T16:46:23.916Z,98914.59
2022-08-01T16:48:52.307Z,98921.19
2022-08-01T16:51:21.885Z,98912.78
2022-08-01T16:53:50.097Z,98910.47
2022-08-01T16:56:18.214Z,98933.56
2022-08-01T16:58:47.413Z,98929.25
2022-08-01T17:01:58.899Z,98927.19
2022-08-01T17:04:04.161Z,98925.13
2022-08-01T17:06:34.014Z,98936.00
2022-08-01T17:09:02.184Z,98926.00
2022-08-01T17:11:31.021Z,98925.66
2022-08-01T17:13:59.299Z,98939.56
2022-08-01T17:16:27.769Z,98941.16
2022-08-01T17:18:56.044Z,98934.50
2022-08-01T17:21:24.140Z,98937.47
2022-08-01T17:23:53.655Z,98935.66
2022-08-01T17:26:21.784Z,98942.50
2022-08-01T17:28:49.911Z,98942.34
2022-08-01T17:31:18.269Z,98944.56
2022-08-01T17:33:49.534Z,98949.03
2022-08-01T17:36:21.290Z,98942.28
2022-08-01T17:38:49.375Z,98952.41
2022-08-01T17:41:19.234Z,98961.47
2022-08-01T17:43:47.376Z,98957.94
2022-08-01T17:46:15.564Z,98963.97
2022-08-01T17:48:44.593Z,98962.75
2022-08-01T17:51:12.700Z,98971.97
2022-08-01T17:53:55.660Z,98977.78
2022-08-01T17:56:28.490Z,98983.78
2022-08-01T17:58:57.143Z,98981.97
2022-08-01T18:01:26.897Z,98984.88
2022-08-01T18:03:57.752Z,98993.16
2022-08-01T18:06:27.151Z,98998.41
2022-08-01T18:08:56.295Z,98994.75
2022-08-01T18:11:27.148Z,99001.56
2022-08-01T18:13:59.657Z,99006.00
2022-08-01T18:16:28.702Z,99011.72
2022-08-01T18:18:57.759Z,99009.09
2022-08-01T18:21:25.975Z,99011.81
2022-08-01T18:23:54.234Z,99017.38
2022-08-01T18:26:22.470Z,99019.09
2022-08-01T18:28:51.561Z,99011.91
2022-08-01T18:31:21.282Z,99024.75
2022-08-01T18:33:49.487Z,99034.28
2022-08-01T18:36:33.127Z,99041.78
2022-08-01T18:39:04.678Z,99041.66
2022-08-01T18:41:34.009Z,99042.53
2022-08-01T18:44:03.829Z,99049.72
2022-08-01T18:46:35.131Z,99057.50
2022-08-01T18:49:03.900Z,99056.44
2022-08-01T18:51:32.112Z,99066.22
2022-08-01T18:54:00.274Z,99067.00
2022-08-01T18:56:28.408Z,99069.06
2022-08-01T18:58:56.761Z,99065.97
2022-08-01T19:01:25.567Z,99080.09
2022-08-01T19:03:55.937Z,99077.19
2022-08-01T19:06:24.864Z,99081.66
2022-08-01T19:08:55.887Z,99083.06
2022-08-01T19:11:28.085Z,99084.53
2022-08-01T19:13:57.408Z,99090.31
2022-08-01T19:16:26.734Z,99078.75
2022-08-01T19:18:56.491Z,99084.34
2022-08-01T19:21:24.849Z,99091.94
2022-08-01T19:24:10.326Z,99085.34
2022-08-01T19:26:40.343Z,99089.88
2022-08-01T19:29:16.121Z,99092.19
2022-08-01T19:31:48.838Z,99099.63
2022-08-01T19:34:26.377Z,99092.25
2022-08-01T19:36:59.088Z,99092.41
2022-08-01T19:39:28.337Z,99099.53
2022-08-01T19:41:59.597Z,99095.00
2022-08-01T19:44:29.746Z,99099.94
2022-08-01T19:46:58.750Z,99093.03
2022-08-01T19:49:28.460Z,99095.03
2022-08-01T19:52:02.533Z,99098.88
2022-08-01T19:54:35.418Z,99097.06
2022-08-01T19:57:06.374Z,99108.78
2022-08-01T19:59:36.303Z,99102.44
2022-08-01T20:02:05.112Z,99112.63
2022-08-01T20:04:35.783Z,99114.03
2022-08-01T20:07:04.655Z,99123.59
2022-08-01T20:09:34.613Z,99117.59
2022-08-01T20:12:03.086Z,99112.16
2022-08-01T20:14:32.615Z,99113.41
2022-08-01T20:17:02.485Z,99117.59
2022-08-01T20:19:32.671Z,99124.84
2022-08-01T20:22:06.391Z,99122.56
2022-08-01T20:24:41.113Z,99123.63
2022-08-01T20:27:11.213Z,99129.63
2022-08-01T20:29:42.056Z,99130.72
2022-08-01T20:32:10.914Z,99129.66
2022-08-01T20:34:40.865Z,99127.16
2022-08-01T20:37:12.968Z,99128.56
2022-08-01T20:39:45.249Z,99131.47
2022-08-01T20:42:14.948Z,99137.03
2022-08-01T20:44:45.424Z,99135.81
2022-08-01T20:47:15.172Z,99139.97
2022-08-01T20:49:45.478Z,99141.19
2022-08-01T20:52:16.904Z,99142.44
2022-08-01T20:54:45.191Z,99139.19
2022-08-01T20:57:21.600Z,99135.50
2022-08-01T20:59:57.430Z,99136.41
2022-08-01T21:02:43.103Z,99125.78
2022-08-01T21:05:13.220Z,99129.94
2022-08-01T21:07:50.545Z,99132.72
2022-08-01T21:10:21.132Z,99141.97
2022-08-01T21:12:54.175Z,99139.59
2022-08-01T21:15:30.144Z,99146.41
2022-08-01T21:18:08.612Z,99139.59
2022-08-01T21:20:42.913Z,99138.59
2022-08-01T21:23:19.546Z,99134.25
2022-08-01T21:25:49.281Z,99134.56
2022-08-01T21:28:17.468Z,99132.72
2022-08-01T21:30:55.783Z,99136.13
2022-08-01T21:33:25.816Z,99136.72
2022-08-01T21:35:59.192Z,99138.59
2022-08-01T21:38:34.404Z,99137.66
2022-08-01T21:41:04.879Z,99142.13
2022-08-01T21:43:34.554Z,99142.13
2022-08-01T21:46:02.928Z,99136.72
2022-08-01T21:48:32.828Z,99138.28
2022-08-01T21:51:05.041Z,99142.88
2022-08-01T21:53:48.755Z,99140.13
2022-08-01T21:56:27.718Z,99136.72
2022-08-01T21:59:05.827Z,99140.28
2022-08-01T22:01:51.575Z,99132.25
2022-08-01T22:04:29.288Z,99141.03
2022-08-01T22:07:00.064Z,99144.59
2022-08-01T22:09:31.045Z,99143.84
2022-08-01T22:12:04.999Z,99138.91
2022-08-01T22:14:40.871Z,99134.88
2022-08-01T22:17:11.496Z,99136.13
2022-08-01T22:19:45.373Z,99135.34
2022-08-01T22:22:45.420Z,99130.25
2022-08-01T22:25:06.399Z,99138.91
2022-08-01T22:28:05.869Z,99133.97
2022-08-01T22:30:23.631Z,99131.47
2022-08-01T22:33:07.212Z,99136.38
2022-08-01T22:35:44.901Z,99131.13
2022-08-01T22:38:13.028Z,99137.59
2022-08-01T22:40:49.490Z,99129.88
2022-08-01T22:43:26.533Z,99133.41
2022-08-01T22:46:07.955Z,99128.03
2022-08-01T22:48:43.244Z,99128.78
2022-08-01T22:51:23.321Z,99120.41
2022-08-01T22:53:58.904Z,99125.63
2022-08-01T22:56:30.590Z,99123.16
2022-08-01T22:59:00.936Z,99124.69
2022-08-01T23:01:30.860Z,99119.09
2022-08-01T23:04:00.463Z,99122.31
2022-08-01T23:06:39.780Z,99121.69
2022-08-01T23:09:10.117Z,99128.25
2022-08-01T23:11:40.514Z,99117.31
2022-08-01T23:14:09.250Z,99121.31
2022-08-01T23:16:39.563Z,99123.44
2022-08-01T23:19:10.923Z,99122.50
2022-08-01T23:21:41.996Z,99132.78
2022-08-01T23:24:11.040Z,99131.34
2022-08-01T23:26:41.567Z,99117.84
2022-08-01T23:29:10.697Z,99123.38
2022-08-01T23:32:00.770Z,99130.69
2022-08-01T23:34:27.121Z,99123.44
2022-08-01T23:36:55.391Z,99123.91
2022-08-01T23:39:23.552Z,99118.47
2022-08-01T23:41:57.355Z,99112.31
2022-08-01T23:44:36.448Z,99118.97
2022-08-01T23:47:04.852Z,99116.09
2022-08-01T23:49:33.107Z,99115.44
2022-08-01T23:52:21.692Z,99114.03
2022-08-01T23:54:50.068Z,99112.94
2022-08-01T23:57:19.467Z,99114.88
2022-08-01T23:59:52.838Z,99121.88
